sensor_id;sensor_type;location;lat;lon;timestamp;P1;durP1;ratioP1;P2;durP2;ratioP2
26474;SDS011;14161;52.270;10.334;2023-02-01T04:02:31;20.65;;;3.58;;
26474;SDS011;14161;52.270;10.334;2023-02-01T04:04:56;16.98;;;4.53;;
26474;SDS011;14161;52.270;10.334;2023-02-01T04:07:22;19.05;;;4.07;;
26474;SDS011;14161;52.270;10.334;2023-02-01T04:09:47;19.77;;;4.45;;
26474;SDS011;14161;52.270;10.334;2023-02-01T04:12:13;19.40;;;4.18;;
26474;SDS011;14161;52.270;10.334;2023-02-01T04:14:38;10.30;;;2.88;;
26474;SDS011;14161;52.270;10.334;2023-02-01T04:17:04;19.48;;;4.57;;
26474;SDS011;14161;52.270;10.334;2023-02-01T04:19:29;22.38;;;4.07;;
26474;SDS011;14161;52.270;10.334;2023-02-01T04:21:54;7.88;;;2.28;;
26474;SDS011;14161;52.270;10.334;2023-02-01T04:24:20;16.50;;;3.63;;
26474;SDS011;14161;52.270;10.334;2023-02-01T04:26:45;25.30;;;4.32;;
26474;SDS011;14161;52.270;10.334;2023-02-01T04:29:11;18.40;;;3.95;;
26474;SDS011;14161;52.270;10.334;2023-02-01T04:31:36;22.38;;;3.85;;
26474;SDS011;14161;52.270;10.334;2023-02-01T04:34:02;11.45;;;3.38;;
26474;SDS011;14161;52.270;10.334;2023-02-01T04:36:27;13.73;;;3.50;;
26474;SDS011;14161;52.270;10.334;2023-02-01T04:38:53;21.23;;;5.22;;
26474;SDS011;14161;52.270;10.334;2023-02-01T04:41:18;13.82;;;3.25;;
26474;SDS011;14161;52.270;10.334;2023-02-01T04:43:45;25.00;;;4.63;;
26474;SDS011;14161;52.270;10.334;2023-02-01T04:46:14;18.27;;;4.13;;
26474;SDS011;14161;52.270;10.334;2023-02-01T04:48:39;21.23;;;4.35;;
26474;SDS011;14161;52.270;10.334;2023-02-01T04:51:05;14.70;;;3.25;;
26474;SDS011;14161;52.270;10.334;2023-02-01T04:53:30;15.65;;;3.70;;
26474;SDS011;14161;52.270;10.334;2023-02-01T04:55:56;21.15;;;4.45;;
26474;SDS011;14161;52.270;10.334;2023-02-01T04:58:21;12.18;;;3.50;;
26474;SDS011;14161;52.270;10.334;2023-02-01T05:00:47;23.67;;;4.43;;
26474;SDS011;14161;52.270;10.334;2023-02-01T05:03:12;15.57;;;3.97;;
26474;SDS011;14161;52.270;10.334;2023-02-01T05:05:38;17.73;;;3.75;;
26474;SDS011;14161;52.270;10.334;2023-02-01T05:08:03;20.52;;;4.38;;
26474;SDS011;14161;52.270;10.334;2023-02-01T05:10:29;17.38;;;4.05;;
26474;SDS011;14161;52.270;10.334;2023-02-01T05:12:54;13.30;;;3.22;;
26474;SDS011;14161;52.270;10.334;2023-02-01T05:15:38;9.05;;;3.00;;
26474;SDS011;14161;52.270;10.334;2023-02-01T05:18:04;10.00;;;2.97;;
26474;SDS011;14161;52.270;10.334;2023-02-01T05:20:29;19.58;;;4.53;;
26474;SDS011;14161;52.270;10.334;2023-02-01T05:22:55;18.00;;;3.72;;
26474;SDS011;14161;52.270;10.334;2023-02-01T05:25:20;16.10;;;4.55;;
26474;SDS011;14161;52.270;10.334;2023-02-01T05:27:45;26.90;;;6.50;;
26474;SDS011;14161;52.270;10.334;2023-02-01T05:30:11;18.25;;;4.32;;
26474;SDS011;14161;52.270;10.334;2023-02-01T05:32:37;18.30;;;4.93;;
26474;SDS011;14161;52.270;10.334;2023-02-01T05:35:02;17.52;;;4.57;;
26474;SDS011;14161;52.270;10.334;2023-02-01T05:37:28;15.30;;;4.22;;
26474;SDS011;14161;52.270;10.334;2023-02-01T05:39:53;17.45;;;3.58;;
26474;SDS011;14161;52.270;10.334;2023-02-01T05:42:19;13.98;;;3.83;;
26474;SDS011;14161;52.270;10.334;2023-02-01T05:44:44;18.98;;;4.68;;
26474;SDS011;14161;52.270;10.334;2023-02-01T05:47:10;16.55;;;4.03;;
26474;SDS011;14161;52.270;10.334;2023-02-01T05:49:35;23.75;;;4.65;;
26474;SDS011;14161;52.270;10.334;2023-02-01T05:52:01;15.38;;;4.03;;
26474;SDS011;14161;52.270;10.334;2023-02-01T05:54:26;16.98;;;3.70;;
26474;SDS011;14161;52.270;10.334;2023-02-01T05:56:52;23.80;;;5.50;;
26474;SDS011;14161;52.270;10.334;2023-02-01T05:59:17;19.20;;;4.95;;
26474;SDS011;14161;52.270;10.334;2023-02-01T06:01:43;14.30;;;3.58;;
26474;SDS011;14161;52.270;10.334;2023-02-01T06:04:08;18.63;;;4.40;;
26474;SDS011;14161;52.270;10.334;2023-02-01T06:06:34;12.73;;;3.63;;
26474;SDS011;14161;52.270;10.334;2023-02-01T06:08:59;14.15;;;3.53;;
26474;SDS011;14161;52.270;10.334;2023-02-01T06:11:25;12.98;;;3.40;;
26474;SDS011;14161;52.270;10.334;2023-02-01T06:13:51;14.15;;;3.40;;
26474;SDS011;14161;52.270;10.334;2023-02-01T06:16:16;15.45;;;3.35;;
26474;SDS011;14161;52.270;10.334;2023-02-01T06:18:42;10.35;;;3.72;;
26474;SDS011;14161;52.270;10.334;2023-02-01T06:21:08;15.10;;;3.95;;
26474;SDS011;14161;52.270;10.334;2023-02-01T06:23:33;14.75;;;4.32;;
26474;SDS011;14161;52.270;10.334;2023-02-01T06:26:00;21.27;;;4.25;;
26474;SDS011;14161;52.270;10.334;2023-02-01T06:28:27;14.57;;;3.10;;
26474;SDS011;14161;52.270;10.334;2023-02-01T06:30:53;16.33;;;3.78;;
26474;SDS011;14161;52.270;10.334;2023-02-01T06:33:19;12.65;;;3.05;;
26474;SDS011;14161;52.270;10.334;2023-02-01T06:35:44;15.10;;;3.40;;
26474;SDS011;14161;52.270;10.334;2023-02-01T06:38:10;12.27;;;3.20;;
26474;SDS011;14161;52.270;10.334;2023-02-01T06:40:36;13.65;;;3.33;;
26474;SDS011;14161;52.270;10.334;2023-02-01T06:43:02;16.95;;;3.67;;
26474;SDS011;14161;52.270;10.334;2023-02-01T06:45:28;11.23;;;2.90;;
26474;SDS011;14161;52.270;10.334;2023-02-01T06:47:53;20.50;;;4.15;;
26474;SDS011;14161;52.270;10.334;2023-02-01T06:50:19;13.00;;;3.25;;
26474;SDS011;14161;52.270;10.334;2023-02-01T06:52:45;17.27;;;3.67;;
26474;SDS011;14161;52.270;10.334;2023-02-01T06:55:11;16.85;;;3.58;;
26474;SDS011;14161;52.270;10.334;2023-02-01T06:57:36;14.75;;;2.97;;
26474;SDS011;14161;52.270;10.334;2023-02-01T08:25:26;14.18;;;2.88;;
26474;SDS011;14161;52.270;10.334;2023-02-01T08:27:52;16.65;;;3.60;;
26474;SDS011;14161;52.270;10.334;2023-02-01T08:30:19;15.30;;;3.20;;
26474;SDS011;14161;52.270;10.334;2023-02-01T08:32:45;11.82;;;2.88;;
26474;SDS011;14161;52.270;10.334;2023-02-01T08:35:10;15.30;;;2.70;;
26474;SDS011;14161;52.270;10.334;2023-02-01T08:37:36;19.67;;;3.65;;
26474;SDS011;14161;52.270;10.334;2023-02-01T08:40:02;20.60;;;3.70;;
26474;SDS011;14161;52.270;10.334;2023-02-01T08:42:29;11.77;;;2.75;;
26474;SDS011;14161;52.270;10.334;2023-02-01T08:45:13;22.13;;;4.10;;
26474;SDS011;14161;52.270;10.334;2023-02-01T08:47:38;14.25;;;3.47;;
26474;SDS011;14161;52.270;10.334;2023-02-01T08:50:04;14.02;;;3.20;;
26474;SDS011;14161;52.270;10.334;2023-02-01T08:52:30;16.77;;;3.95;;
26474;SDS011;14161;52.270;10.334;2023-02-01T08:54:55;19.30;;;4.13;;
26474;SDS011;14161;52.270;10.334;2023-02-01T08:57:21;17.20;;;3.67;;
26474;SDS011;14161;52.270;10.334;2023-02-01T08:59:46;17.90;;;3.80;;
26474;SDS011;14161;52.270;10.334;2023-02-01T09:02:15;18.65;;;3.13;;
26474;SDS011;14161;52.270;10.334;2023-02-01T09:04:41;17.70;;;3.90;;
26474;SDS011;14161;52.270;10.334;2023-02-01T09:07:07;13.60;;;3.28;;
26474;SDS011;14161;52.270;10.334;2023-02-01T09:09:33;15.60;;;3.35;;
26474;SDS011;14161;52.270;10.334;2023-02-01T09:11:59;20.77;;;3.50;;
26474;SDS011;14161;52.270;10.334;2023-02-01T09:14:24;16.65;;;3.25;;
26474;SDS011;14161;52.270;10.334;2023-02-01T09:16:50;12.88;;;3.50;;
26474;SDS011;14161;52.270;10.334;2023-02-01T09:19:15;18.95;;;3.58;;
26474;SDS011;14161;52.270;10.334;2023-02-01T09:21:41;13.63;;;2.58;;
26474;SDS011;14161;52.270;10.334;2023-02-01T09:24:08;13.95;;;2.65;;
26474;SDS011;14161;52.270;10.334;2023-02-01T09:26:35;15.48;;;3.45;;
26474;SDS011;14161;52.270;10.334;2023-02-01T09:29:00;11.60;;;2.58;;
26474;SDS011;14161;52.270;10.334;2023-02-01T09:31:26;18.67;;;3.08;;
26474;SDS011;14161;52.270;10.334;2023-02-01T09:33:51;12.75;;;3.17;;
26474;SDS011;14161;52.270;10.334;2023-02-01T09:36:17;15.68;;;2.53;;
26474;SDS011;14161;52.270;10.334;2023-02-01T09:38:45;15.18;;;2.92;;
26474;SDS011;14161;52.270;10.334;2023-02-01T09:46:49;12.45;;;2.63;;
26474;SDS011;14161;52.270;10.334;2023-02-01T09:49:22;11.98;;;3.08;;
26474;SDS011;14161;52.270;10.334;2023-02-01T09:51:52;14.63;;;2.72;;
26474;SDS011;14161;52.270;10.334;2023-02-01T09:54:20;17.38;;;3.15;;
26474;SDS011;14161;52.270;10.334;2023-02-01T10:02:10;11.80;;;2.83;;
26474;SDS011;14161;52.270;10.334;2023-02-01T10:04:38;9.63;;;3.05;;
26474;SDS011;14161;52.270;10.334;2023-02-01T10:20:31;10.25;;;2.63;;
26474;SDS011;14161;52.270;10.334;2023-02-01T10:24:12;15.70;;;2.67;;
26474;SDS011;14161;52.270;10.334;2023-02-01T10:28:55;14.35;;;2.60;;
26474;SDS011;14161;52.270;10.334;2023-02-01T10:31:24;22.35;;;3.85;;
26474;SDS011;14161;52.270;10.334;2023-02-01T10:33:52;19.85;;;3.38;;
26474;SDS011;14161;52.270;10.334;2023-02-01T10:36:28;17.02;;;2.95;;
26474;SDS011;14161;52.270;10.334;2023-02-01T10:38:55;13.95;;;2.88;;
26474;SDS011;14161;52.270;10.334;2023-02-01T10:41:23;14.75;;;3.33;;
26474;SDS011;14161;52.270;10.334;2023-02-01T10:43:54;9.10;;;2.30;;
26474;SDS011;14161;52.270;10.334;2023-02-01T10:46:20;15.75;;;2.88;;
26474;SDS011;14161;52.270;10.334;2023-02-01T10:48:48;15.65;;;3.42;;
26474;SDS011;14161;52.270;10.334;2023-02-01T10:51:16;14.63;;;2.80;;
26474;SDS011;14161;52.270;10.334;2023-02-01T10:54:08;10.15;;;3.00;;
26474;SDS011;14161;52.270;10.334;2023-02-01T10:56:45;7.35;;;1.88;;
26474;SDS011;14161;52.270;10.334;2023-02-01T10:59:15;13.18;;;2.97;;
26474;SDS011;14161;52.270;10.334;2023-02-01T11:01:47;10.02;;;2.72;;
26474;SDS011;14161;52.270;10.334;2023-02-01T11:04:14;17.50;;;3.95;;
26474;SDS011;14161;52.270;10.334;2023-02-01T11:06:43;17.65;;;4.03;;
26474;SDS011;14161;52.270;10.334;2023-02-01T11:16:40;9.00;;;2.20;;
26474;SDS011;14161;52.270;10.334;2023-02-01T11:19:06;10.25;;;3.05;;
26474;SDS011;14161;52.270;10.334;2023-02-01T11:21:32;15.07;;;2.80;;
26474;SDS011;14161;52.270;10.334;2023-02-01T11:24:04;13.73;;;2.53;;
26474;SDS011;14161;52.270;10.334;2023-02-01T11:26:31;13.48;;;2.85;;
26474;SDS011;14161;52.270;10.334;2023-02-01T11:28:59;10.98;;;2.15;;
26474;SDS011;14161;52.270;10.334;2023-02-01T11:31:28;10.02;;;2.20;;
26474;SDS011;14161;52.270;10.334;2023-02-01T11:34:04;13.52;;;2.33;;
26474;SDS011;14161;52.270;10.334;2023-02-01T11:36:33;10.68;;;2.60;;
26474;SDS011;14161;52.270;10.334;2023-02-01T11:41:58;14.38;;;2.85;;
26474;SDS011;14161;52.270;10.334;2023-02-01T11:44:37;8.68;;;2.10;;
26474;SDS011;14161;52.270;10.334;2023-02-01T11:47:21;14.00;;;2.80;;
26474;SDS011;14161;52.270;10.334;2023-02-01T11:49:47;13.82;;;2.92;;
26474;SDS011;14161;52.270;10.334;2023-02-01T11:52:18;14.25;;;3.17;;
26474;SDS011;14161;52.270;10.334;2023-02-01T12:09:53;10.50;;;2.42;;
26474;SDS011;14161;52.270;10.334;2023-02-01T12:12:20;13.15;;;2.60;;
26474;SDS011;14161;52.270;10.334;2023-02-01T12:34:19;16.33;;;3.58;;
26474;SDS011;14161;52.270;10.334;2023-02-01T12:42:27;14.55;;;3.05;;
26474;SDS011;14161;52.270;10.334;2023-02-01T12:45:01;14.55;;;2.88;;
26474;SDS011;14161;52.270;10.334;2023-02-01T12:47:37;8.73;;;2.80;;
26474;SDS011;14161;52.270;10.334;2023-02-01T12:50:20;8.10;;;2.60;;
26474;SDS011;14161;52.270;10.334;2023-02-01T12:52:53;13.23;;;2.47;;
26474;SDS011;14161;52.270;10.334;2023-02-01T12:55:22;10.55;;;2.75;;
26474;SDS011;14161;52.270;10.334;2023-02-01T12:57:50;13.68;;;3.08;;
26474;SDS011;14161;52.270;10.334;2023-02-01T13:03:00;12.82;;;3.58;;
26474;SDS011;14161;52.270;10.334;2023-02-01T13:05:39;11.85;;;3.25;;
26474;SDS011;14161;52.270;10.334;2023-02-01T13:08:11;15.05;;;3.13;;
26474;SDS011;14161;52.270;10.334;2023-02-01T13:11:14;14.63;;;2.92;;
26474;SDS011;14161;52.270;10.334;2023-02-01T13:16:23;11.00;;;3.08;;
26474;SDS011;14161;52.270;10.334;2023-02-01T13:19:00;10.98;;;2.17;;
26474;SDS011;14161;52.270;10.334;2023-02-01T13:21:35;16.55;;;2.70;;
26474;SDS011;14161;52.270;10.334;2023-02-01T13:24:04;8.20;;;2.53;;
26474;SDS011;14161;52.270;10.334;2023-02-01T13:26:31;10.52;;;2.42;;
26474;SDS011;14161;52.270;10.334;2023-02-01T13:29:01;12.07;;;2.83;;
26474;SDS011;14161;52.270;10.334;2023-02-01T13:42:48;10.27;;;2.20;;
26474;SDS011;14161;52.270;10.334;2023-02-01T13:45:20;8.20;;;2.30;;
26474;SDS011;14161;52.270;10.334;2023-02-01T13:47:49;12.02;;;2.95;;
26474;SDS011;14161;52.270;10.334;2023-02-01T13:50:25;8.23;;;2.47;;
26474;SDS011;14161;52.270;10.334;2023-02-01T13:52:56;7.65;;;2.13;;
26474;SDS011;14161;52.270;10.334;2023-02-01T13:55:28;8.93;;;2.28;;
26474;SDS011;14161;52.270;10.334;2023-02-01T13:58:00;8.52;;;2.63;;
26474;SDS011;14161;52.270;10.334;2023-02-01T14:00:38;2.20;;;0.98;;
26474;SDS011;14161;52.270;10.334;2023-02-01T14:16:10;1.95;;;0.35;;
26474;SDS011;14161;52.270;10.334;2023-02-01T14:28:57;1.52;;;0.60;;
26474;SDS011;14161;52.270;10.334;2023-02-01T14:31:33;0.98;;;0.50;;
26474;SDS011;14161;52.270;10.334;2023-02-01T14:34:08;1.77;;;0.50;;
26474;SDS011;14161;52.270;10.334;2023-02-01T14:36:40;4.38;;;0.68;;
26474;SDS011;14161;52.270;10.334;2023-02-01T14:39:18;2.45;;;0.75;;
26474;SDS011;14161;52.270;10.334;2023-02-01T14:44:23;4.70;;;0.60;;
26474;SDS011;14161;52.270;10.334;2023-02-01T14:47:10;1.67;;;0.40;;
26474;SDS011;14161;52.270;10.334;2023-02-01T14:52:32;2.72;;;0.30;;
26474;SDS011;14161;52.270;10.334;2023-02-01T14:55:02;3.40;;;0.30;;
26474;SDS011;14161;52.270;10.334;2023-02-01T14:57:30;3.35;;;0.47;;
26474;SDS011;14161;52.270;10.334;2023-02-01T15:00:20;0.40;;;0.20;;
26474;SDS011;14161;52.270;10.334;2023-02-01T15:02:47;0.57;;;0.30;;
26474;SDS011;14161;52.270;10.334;2023-02-01T15:05:31;1.20;;;0.32;;
26474;SDS011;14161;52.270;10.334;2023-02-01T15:08:11;0.55;;;0.38;;
26474;SDS011;14161;52.270;10.334;2023-02-01T15:10:45;0.93;;;0.40;;
26474;SDS011;14161;52.270;10.334;2023-02-01T15:13:22;1.42;;;0.30;;
26474;SDS011;14161;52.270;10.334;2023-02-01T15:18:41;1.42;;;0.45;;
26474;SDS011;14161;52.270;10.334;2023-02-01T15:21:16;2.42;;;0.55;;
26474;SDS011;14161;52.270;10.334;2023-02-01T15:23:46;2.25;;;0.70;;
26474;SDS011;14161;52.270;10.334;2023-02-01T15:26:30;2.03;;;0.60;;
26474;SDS011;14161;52.270;10.334;2023-02-01T15:28:59;4.53;;;0.60;;
26474;SDS011;14161;52.270;10.334;2023-02-01T15:31:32;2.60;;;0.60;;
26474;SDS011;14161;52.270;10.334;2023-02-01T15:34:02;2.22;;;0.60;;
26474;SDS011;14161;52.270;10.334;2023-02-01T15:36:27;5.68;;;0.60;;
26474;SDS011;14161;52.270;10.334;2023-02-01T15:39:13;2.65;;;0.70;;
26474;SDS011;14161;52.270;10.334;2023-02-01T15:44:28;2.63;;;0.50;;
26474;SDS011;14161;52.270;10.334;2023-02-01T15:46:56;4.40;;;0.82;;
26474;SDS011;14161;52.270;10.334;2023-02-01T15:51:52;4.35;;;1.27;;
26474;SDS011;14161;52.270;10.334;2023-02-01T15:54:20;7.68;;;1.33;;
26474;SDS011;14161;52.270;10.334;2023-02-01T15:57:31;8.02;;;1.50;;
26474;SDS011;14161;52.270;10.334;2023-02-01T16:00:45;3.03;;;0.70;;
26474;SDS011;14161;52.270;10.334;2023-02-01T16:02:59;3.05;;;1.00;;
26474;SDS011;14161;52.270;10.334;2023-02-01T16:08:17;3.75;;;1.02;;
26474;SDS011;14161;52.270;10.334;2023-02-01T16:10:47;4.03;;;1.20;;
26474;SDS011;14161;52.270;10.334;2023-02-01T16:13:15;5.60;;;1.15;;
26474;SDS011;14161;52.270;10.334;2023-02-01T16:15:41;8.13;;;1.10;;
26474;SDS011;14161;52.270;10.334;2023-02-01T16:18:07;4.70;;;1.05;;
26474;SDS011;14161;52.270;10.334;2023-02-01T16:20:33;4.18;;;0.88;;
26474;SDS011;14161;52.270;10.334;2023-02-01T16:23:03;3.75;;;1.20;;
26474;SDS011;14161;52.270;10.334;2023-02-01T16:25:29;3.53;;;1.08;;
26474;SDS011;14161;52.270;10.334;2023-02-01T16:27:54;9.57;;;1.75;;
26474;SDS011;14161;52.270;10.334;2023-02-01T16:30:20;8.10;;;1.75;;
26474;SDS011;14161;52.270;10.334;2023-02-01T16:32:56;6.90;;;1.25;;
26474;SDS011;14161;52.270;10.334;2023-02-01T16:35:34;8.90;;;1.58;;
26474;SDS011;14161;52.270;10.334;2023-02-01T16:38:02;5.25;;;1.50;;
26474;SDS011;14161;52.270;10.334;2023-02-01T16:40:33;9.25;;;1.90;;
26474;SDS011;14161;52.270;10.334;2023-02-01T16:42:59;3.15;;;1.20;;
26474;SDS011;14161;52.270;10.334;2023-02-01T16:45:24;5.35;;;1.30;;
26474;SDS011;14161;52.270;10.334;2023-02-01T16:47:50;5.88;;;1.35;;
26474;SDS011;14161;52.270;10.334;2023-02-01T16:50:23;5.05;;;1.38;;
26474;SDS011;14161;52.270;10.334;2023-02-01T16:52:50;12.32;;;2.50;;
26474;SDS011;14161;52.270;10.334;2023-02-01T16:55:16;15.77;;;2.55;;
26474;SDS011;14161;52.270;10.334;2023-02-01T16:57:43;5.78;;;1.92;;
26474;SDS011;14161;52.270;10.334;2023-02-01T17:00:09;6.28;;;1.80;;
26474;SDS011;14161;52.270;10.334;2023-02-01T17:02:36;6.07;;;1.73;;
26474;SDS011;14161;52.270;10.334;2023-02-01T17:05:02;6.75;;;1.67;;
26474;SDS011;14161;52.270;10.334;2023-02-01T17:07:28;9.48;;;1.67;;
26474;SDS011;14161;52.270;10.334;2023-02-01T17:09:54;10.93;;;2.33;;
26474;SDS011;14161;52.270;10.334;2023-02-01T17:14:50;11.30;;;2.00;;
26474;SDS011;14161;52.270;10.334;2023-02-01T17:17:36;7.93;;;1.80;;
26474;SDS011;14161;52.270;10.334;2023-02-01T17:20:02;11.65;;;2.63;;
26474;SDS011;14161;52.270;10.334;2023-02-01T17:22:28;11.95;;;2.47;;
26474;SDS011;14161;52.270;10.334;2023-02-01T17:24:53;15.60;;;2.70;;
26474;SDS011;14161;52.270;10.334;2023-02-01T17:27:19;12.45;;;2.45;;
26474;SDS011;14161;52.270;10.334;2023-02-01T17:29:44;8.55;;;2.22;;
26474;SDS011;14161;52.270;10.334;2023-02-01T17:32:18;7.80;;;2.30;;
26474;SDS011;14161;52.270;10.334;2023-02-01T17:34:45;12.80;;;2.42;;
26474;SDS011;14161;52.270;10.334;2023-02-01T17:37:15;14.38;;;2.78;;
26474;SDS011;14161;52.270;10.334;2023-02-01T17:39:52;13.00;;;2.42;;
26474;SDS011;14161;52.270;10.334;2023-02-01T17:42:20;12.23;;;2.78;;
26474;SDS011;14161;52.270;10.334;2023-02-01T17:44:46;14.75;;;3.22;;
26474;SDS011;14161;52.270;10.334;2023-02-01T17:47:12;13.13;;;2.20;;
26474;SDS011;14161;52.270;10.334;2023-02-01T17:49:37;17.63;;;2.55;;
26474;SDS011;14161;52.270;10.334;2023-02-01T17:52:03;9.32;;;2.30;;
26474;SDS011;14161;52.270;10.334;2023-02-01T17:54:29;8.15;;;2.17;;
26474;SDS011;14161;52.270;10.334;2023-02-01T17:56:55;21.52;;;5.18;;
26474;SDS011;14161;52.270;10.334;2023-02-01T17:59:25;9.63;;;2.63;;
26474;SDS011;14161;52.270;10.334;2023-02-01T18:01:56;12.15;;;2.85;;
26474;SDS011;14161;52.270;10.334;2023-02-01T18:04:24;9.32;;;2.95;;
26474;SDS011;14161;52.270;10.334;2023-02-01T18:06:50;11.68;;;2.97;;
26474;SDS011;14161;52.270;10.334;2023-02-01T18:09:16;14.55;;;3.47;;
26474;SDS011;14161;52.270;10.334;2023-02-01T18:11:41;10.95;;;3.22;;
26474;SDS011;14161;52.270;10.334;2023-02-01T18:14:08;11.40;;;3.13;;
26474;SDS011;14161;52.270;10.334;2023-02-01T18:16:36;7.45;;;2.47;;
26474;SDS011;14161;52.270;10.334;2023-02-01T18:19:01;7.93;;;2.75;;
26474;SDS011;14161;52.270;10.334;2023-02-01T18:21:36;7.15;;;1.75;;
26474;SDS011;14161;52.270;10.334;2023-02-01T18:24:04;8.27;;;2.38;;
26474;SDS011;14161;52.270;10.334;2023-02-01T18:26:29;9.13;;;2.17;;
26474;SDS011;14161;52.270;10.334;2023-02-01T18:28:56;8.35;;;2.67;;
26474;SDS011;14161;52.270;10.334;2023-02-01T18:31:23;10.73;;;2.67;;
26474;SDS011;14161;52.270;10.334;2023-02-01T18:33:50;9.43;;;4.10;;
26474;SDS011;14161;52.270;10.334;2023-02-01T18:36:16;6.47;;;2.75;;
26474;SDS011;14161;52.270;10.334;2023-02-01T18:38:42;14.50;;;6.93;;
26474;SDS011;14161;52.270;10.334;2023-02-01T18:41:11;17.50;;;7.32;;
26474;SDS011;14161;52.270;10.334;2023-02-01T18:43:39;9.02;;;3.88;;
26474;SDS011;14161;52.270;10.334;2023-02-01T18:46:05;7.28;;;3.10;;
26474;SDS011;14161;52.270;10.334;2023-02-01T18:48:32;7.95;;;2.70;;
26474;SDS011;14161;52.270;10.334;2023-02-01T18:50:58;7.28;;;2.17;;
26474;SDS011;14161;52.270;10.334;2023-02-01T18:53:23;11.50;;;2.60;;
26474;SDS011;14161;52.270;10.334;2023-02-01T18:55:57;13.52;;;3.33;;
26474;SDS011;14161;52.270;10.334;2023-02-01T18:58:23;18.55;;;4.22;;
26474;SDS011;14161;52.270;10.334;2023-02-01T19:00:50;22.42;;;3.58;;
26474;SDS011;14161;52.270;10.334;2023-02-01T19:03:17;18.13;;;3.35;;
26474;SDS011;14161;52.270;10.334;2023-02-01T19:05:42;15.15;;;3.45;;
26474;SDS011;14161;52.270;10.334;2023-02-01T19:08:08;17.52;;;2.90;;
26474;SDS011;14161;52.270;10.334;2023-02-01T19:10:34;21.23;;;3.10;;
26474;SDS011;14161;52.270;10.334;2023-02-01T19:13:03;20.88;;;3.58;;
26474;SDS011;14161;52.270;10.334;2023-02-01T19:15:28;19.88;;;3.35;;
26474;SDS011;14161;52.270;10.334;2023-02-01T19:17:54;20.85;;;3.47;;
26474;SDS011;14161;52.270;10.334;2023-02-01T19:20:21;17.65;;;2.97;;
26474;SDS011;14161;52.270;10.334;2023-02-01T19:22:48;17.27;;;3.40;;
26474;SDS011;14161;52.270;10.334;2023-02-01T19:25:17;15.98;;;2.92;;
26474;SDS011;14161;52.270;10.334;2023-02-01T19:27:45;14.18;;;3.03;;
26474;SDS011;14161;52.270;10.334;2023-02-01T19:30:10;14.40;;;2.83;;
26474;SDS011;14161;52.270;10.334;2023-02-01T19:32:37;10.60;;;2.63;;
26474;SDS011;14161;52.270;10.334;2023-02-01T19:35:03;11.32;;;2.40;;
26474;SDS011;14161;52.270;10.334;2023-02-01T19:37:29;10.55;;;2.75;;
26474;SDS011;14161;52.270;10.334;2023-02-01T19:39:54;19.48;;;3.03;;
26474;SDS011;14161;52.270;10.334;2023-02-01T19:42:20;15.23;;;2.65;;
26474;SDS011;14161;52.270;10.334;2023-02-01T19:44:45;12.60;;;2.83;;
26474;SDS011;14161;52.270;10.334;2023-02-01T19:47:11;9.55;;;1.92;;
26474;SDS011;14161;52.270;10.334;2023-02-01T19:49:36;17.33;;;3.35;;
26474;SDS011;14161;52.270;10.334;2023-02-01T19:52:02;12.90;;;2.95;;
26474;SDS011;14161;52.270;10.334;2023-02-01T19:54:28;15.40;;;2.33;;
26474;SDS011;14161;52.270;10.334;2023-02-01T19:56:53;12.20;;;2.30;;
26474;SDS011;14161;52.270;10.334;2023-02-01T19:59:19;13.73;;;2.83;;
26474;SDS011;14161;52.270;10.334;2023-02-01T20:01:45;8.25;;;2.25;;
26474;SDS011;14161;52.270;10.334;2023-02-01T20:04:12;8.45;;;2.55;;
26474;SDS011;14161;52.270;10.334;2023-02-01T20:06:39;9.43;;;2.83;;
26474;SDS011;14161;52.270;10.334;2023-02-01T20:09:05;16.70;;;2.40;;
26474;SDS011;14161;52.270;10.334;2023-02-01T20:11:31;11.73;;;2.35;;
26474;SDS011;14161;52.270;10.334;2023-02-01T20:13:56;14.93;;;2.85;;
26474;SDS011;14161;52.270;10.334;2023-02-01T20:16:24;11.68;;;2.08;;
26474;SDS011;14161;52.270;10.334;2023-02-01T20:18:50;10.40;;;2.35;;
26474;SDS011;14161;52.270;10.334;2023-02-01T20:21:15;13.52;;;2.70;;
26474;SDS011;14161;52.270;10.334;2023-02-01T20:23:43;10.57;;;2.55;;
26474;SDS011;14161;52.270;10.334;2023-02-01T20:26:12;15.32;;;3.10;;
26474;SDS011;14161;52.270;10.334;2023-02-01T20:28:37;18.67;;;3.40;;
26474;SDS011;14161;52.270;10.334;2023-02-01T20:31:03;18.45;;;3.97;;
26474;SDS011;14161;52.270;10.334;2023-02-01T20:33:29;15.90;;;2.83;;
26474;SDS011;14161;52.270;10.334;2023-02-01T20:35:55;14.40;;;2.85;;
26474;SDS011;14161;52.270;10.334;2023-02-01T20:38:20;14.52;;;3.08;;
26474;SDS011;14161;52.270;10.334;2023-02-01T20:40:46;17.23;;;3.42;;
26474;SDS011;14161;52.270;10.334;2023-02-01T20:43:12;17.30;;;3.20;;
26474;SDS011;14161;52.270;10.334;2023-02-01T20:45:38;16.85;;;2.80;;
26474;SDS011;14161;52.270;10.334;2023-02-01T20:48:04;7.95;;;2.03;;
26474;SDS011;14161;52.270;10.334;2023-02-01T20:50:30;19.58;;;2.80;;
26474;SDS011;14161;52.270;10.334;2023-02-01T20:52:56;14.68;;;3.20;;
26474;SDS011;14161;52.270;10.334;2023-02-01T20:55:21;16.33;;;3.13;;
26474;SDS011;14161;52.270;10.334;2023-02-01T20:57:49;12.75;;;3.22;;
26474;SDS011;14161;52.270;10.334;2023-02-01T21:00:15;15.95;;;2.72;;
26474;SDS011;14161;52.270;10.334;2023-02-01T21:02:40;16.45;;;3.22;;
26474;SDS011;14161;52.270;10.334;2023-02-01T21:09:08;15.52;;;3.17;;
26474;SDS011;14161;52.270;10.334;2023-02-01T21:11:33;13.23;;;3.30;;
26474;SDS011;14161;52.270;10.334;2023-02-01T21:13:58;18.50;;;3.38;;
26474;SDS011;14161;52.270;10.334;2023-02-01T21:16:24;19.50;;;2.50;;
26474;SDS011;14161;52.270;10.334;2023-02-01T21:18:51;15.75;;;2.75;;
26474;SDS011;14161;52.270;10.334;2023-02-01T21:21:17;10.45;;;2.92;;
26474;SDS011;14161;52.270;10.334;2023-02-01T21:23:43;11.15;;;2.47;;
26474;SDS011;14161;52.270;10.334;2023-02-01T21:26:18;14.27;;;2.95;;
